Time;durP1;ratioP1;P1;durP2;ratioP2;P2;SDS_P1;SDS_P2;PMS_P1;PMS_P2;Temp;Humidity;BMP_temperature;BMP_pressure;BME280_temperature;BME280_humidity;BME280_pressure;Samples;Min_cycle;Max_cycle;Signal;HPM_P1;HPM_P2
2022/10/26 00:01:20;;;;;;;10.15;3.38;;;13.30;99.90;;;;;;5025587;28;20042;-61
2022/10/26 00:03:48;;;;;;;12.07;3.50;;;13.30;99.90;;;;;;5019111;28;20052;-59
2022/10/26 00:06:21;;;;;;;13.80;2.90;;;13.30;99.90;;;;;;5016727;28;20435;-58
2022/10/26 00:08:49;;;;;;;7.57;2.58;;;13.40;99.90;;;;;;5012167;28;20050;-58
2022/10/26 00:11:18;;;;;;;14.90;4.20;;;13.40;99.90;;;;;;5005371;28;20049;-59
2022/10/26 00:13:46;;;;;;;12.57;3.55;;;13.40;99.90;;;;;;5010032;28;20058;-58
2022/10/26 00:16:21;;;;;;;10.48;2.78;;;13.50;99.90;;;;;;5019338;28;20053;-58
2022/10/26 00:18:49;;;;;;;9.85;2.92;;;13.40;99.90;;;;;;5016149;28;20053;-58
2022/10/26 00:21:17;;;;;;;9.55;3.20;;;13.40;99.90;;;;;;5004669;28;20042;-59
2022/10/26 00:23:45;;;;;;;8.35;2.50;;;13.50;99.90;;;;;;5015069;28;20052;-58
2022/10/26 00:26:13;;;;;;;9.05;3.25;;;13.50;99.90;;;;;;5023264;28;20052;-59
2022/10/26 00:28:40;;;;;;;18.05;3.25;;;13.60;99.90;;;;;;5023414;28;20801;-59
2022/10/26 00:31:12;;;;;;;11.18;3.20;;;13.60;99.90;;;;;;5021786;28;20508;-57
2022/10/26 00:33:40;;;;;;;6.05;2.65;;;13.60;99.90;;;;;;5011744;28;20388;-59
2022/10/26 00:36:08;;;;;;;6.50;2.47;;;13.60;99.90;;;;;;5016103;28;20508;-58
2022/10/26 00:38:37;;;;;;;11.23;2.80;;;13.60;99.90;;;;;;5017200;28;20049;-58
2022/10/26 00:41:04;;;;;;;13.07;2.70;;;13.70;99.90;;;;;;5022929;28;20065;-58
2022/10/26 00:43:37;;;;;;;11.60;2.75;;;13.70;99.90;;;;;;5023557;28;20405;-58
2022/10/26 00:46:09;;;;;;;7.93;2.83;;;13.70;99.90;;;;;;5019466;28;20072;-59
2022/10/26 00:48:42;;;;;;;9.88;2.83;;;13.70;99.90;;;;;;5009076;28;20045;-59
2022/10/26 00:51:26;;;;;;;7.80;2.80;;;13.70;99.90;;;;;;5015218;28;20481;-58
2022/10/26 00:53:54;;;;;;;8.20;3.97;;;13.70;99.90;;;;;;5013181;28;20053;-59
2022/10/26 00:56:22;;;;;;;15.63;2.85;;;13.70;99.90;;;;;;5022415;28;20048;-58
2022/10/26 00:58:51;;;;;;;16.17;3.00;;;13.70;99.90;;;;;;5028507;28;20045;-58
2022/10/26 01:01:18;;;;;;;14.60;3.60;;;13.70;99.90;;;;;;5026746;28;20057;-59
2022/10/26 01:03:47;;;;;;;10.13;2.40;;;13.80;99.90;;;;;;5023375;28;20048;-58
2022/10/26 01:06:15;;;;;;;9.95;2.88;;;13.80;99.90;;;;;;5012196;28;20053;-60
2022/10/26 01:08:43;;;;;;;10.20;2.75;;;13.80;99.90;;;;;;5025532;28;20045;-59
2022/10/26 01:11:11;;;;;;;5.50;2.50;;;13.90;99.90;;;;;;5028231;28;20048;-58
2022/10/26 01:13:42;;;;;;;9.77;2.67;;;13.90;99.90;;;;;;5028017;28;20052;-58
2022/10/26 01:16:27;;;;;;;12.18;2.58;;;13.90;99.90;;;;;;5025865;28;20501;-57
2022/10/26 01:19:13;;;;;;;9.40;2.20;;;13.90;99.90;;;;;;5027947;28;20049;-59
2022/10/26 01:21:53;;;;;;;8.30;2.70;;;13.90;99.90;;;;;;5008077;28;20053;-59
2022/10/26 01:24:57;;;;;;;12.05;3.03;;;13.90;99.90;;;;;;5009429;28;20041;-59
2022/10/26 01:27:42;;;;;;;12.63;3.10;;;13.90;99.90;;;;;;5018103;28;20058;-58
2022/10/26 01:30:18;;;;;;;8.70;2.30;;;13.90;99.90;;;;;;5020268;28;20453;-59
2022/10/26 01:33:40;;;;;;;9.68;2.65;;;13.90;99.90;;;;;;5011590;28;20065;-58
2022/10/26 01:36:21;;;;;;;10.30;2.63;;;13.90;99.90;;;;;;5008602;28;20093;-58
2022/10/26 01:39:07;;;;;;;10.05;1.95;;;14.00;99.90;;;;;;5024788;28;20115;-59
2022/10/26 01:41:50;;;;;;;6.88;3.33;;;14.00;99.90;;;;;;5018311;28;20050;-58
2022/10/26 01:44:28;;;;;;;8.80;2.13;;;14.00;99.90;;;;;;5010820;28;20054;-62
2022/10/26 01:46:58;;;;;;;6.93;2.72;;;14.00;99.90;;;;;;5010700;28;20046;-58
2022/10/26 01:49:29;;;;;;;17.23;3.03;;;14.10;99.90;;;;;;5026757;28;20053;-58
2022/10/26 01:51:57;;;;;;;6.35;2.10;;;14.10;99.90;;;;;;5022910;28;20044;-59
2022/10/26 01:54:24;;;;;;;15.18;3.35;;;14.10;99.90;;;;;;5010724;28;20065;-60
2022/10/26 01:56:56;;;;;;;13.43;2.33;;;14.20;99.90;;;;;;5011058;28;20504;-63
2022/10/26 01:59:45;;;;;;;8.30;2.47;;;14.20;99.90;;;;;;5017478;28;20054;-59
2022/10/26 02:02:26;;;;;;;10.52;2.08;;;14.20;99.90;;;;;;5016026;28;20044;-60
2022/10/26 02:05:09;;;;;;;12.88;3.28;;;14.20;99.90;;;;;;5014670;28;20411;-62
2022/10/26 02:07:55;;;;;;;7.30;1.77;;;14.30;99.90;;;;;;5010736;28;20121;-60
2022/10/26 02:10:26;;;;;;;10.93;2.33;;;14.30;99.90;;;;;;5024317;28;20046;-60
2022/10/26 02:12:56;;;;;;;11.07;2.78;;;14.20;99.90;;;;;;5029163;28;20056;-67
2022/10/26 02:15:33;;;;;;;10.85;2.58;;;14.20;99.90;;;;;;5026023;28;20045;-61
2022/10/26 02:18:14;;;;;;;12.23;2.25;;;14.20;99.90;;;;;;5011130;28;20050;-62
2022/10/26 02:20:46;;;;;;;13.23;2.35;;;14.20;99.90;;;;;;5018139;28;20053;-58
2022/10/26 02:23:15;;;;;;;10.48;2.00;;;14.20;99.90;;;;;;5026009;28;20038;-58
2022/10/26 02:25:50;;;;;;;10.32;2.58;;;14.20;99.90;;;;;;5024354;28;20065;-60
2022/10/26 02:28:23;;;;;;;11.85;3.05;;;14.30;99.90;;;;;;5012893;28;20046;-58
2022/10/26 02:30:54;;;;;;;6.93;2.33;;;14.20;99.90;;;;;;5030131;28;20049;-60
2022/10/26 02:33:24;;;;;;;9.82;2.60;;;14.30;99.90;;;;;;5021837;28;20044;-58
2022/10/26 02:35:53;;;;;;;8.85;2.47;;;14.20;99.90;;;;;;5009652;28;20049;-59
2022/10/26 02:38:22;;;;;;;12.98;2.60;;;14.20;99.90;;;;;;5012618;28;20050;-58
2022/10/26 02:40:51;;;;;;;12.60;2.57;;;14.20;99.90;;;;;;5024256;28;20057;-58
2022/10/26 02:43:20;;;;;;;7.65;2.28;;;14.30;99.90;;;;;;5015441;28;20050;-58
2022/10/26 02:45:52;;;;;;;10.55;2.53;;;14.30;99.90;;;;;;5013496;28;20382;-58
2022/10/26 02:48:21;;;;;;;8.00;2.10;;;14.30;99.90;;;;;;5016271;28;21042;-58
2022/10/26 02:51:10;;;;;;;14.15;2.83;;;14.30;99.90;;;;;;5029411;28;20064;-58
2022/10/26 02:53:59;;;;;;;12.50;2.33;;;14.30;99.90;;;;;;5028633;28;20408;-58
2022/10/26 02:56:35;;;;;;;9.47;2.43;;;14.30;99.90;;;;;;5027059;28;20045;-58
2022/10/26 02:59:05;;;;;;;11.23;2.15;;;14.30;99.90;;;;;;5018545;28;20052;-59
2022/10/26 03:01:34;;;;;;;8.77;2.00;;;14.30;99.90;;;;;;5027915;28;20501;-59
2022/10/26 03:04:02;;;;;;;10.50;2.53;;;14.40;99.90;;;;;;5025832;28;20045;-59
2022/10/26 03:06:30;;;;;;;6.90;2.42;;;14.30;99.90;;;;;;5028107;28;20053;-58
2022/10/26 03:08:57;;;;;;;10.55;2.10;;;14.40;99.90;;;;;;5027943;28;20041;-58
2022/10/26 03:11:25;;;;;;;9.43;2.22;;;14.40;99.90;;;;;;5023431;28;20052;-58
2022/10/26 03:13:52;;;;;;;7.60;1.90;;;14.40;99.90;;;;;;5014162;28;20045;-58
2022/10/26 03:16:20;;;;;;;11.38;1.80;;;14.50;99.90;;;;;;5030861;28;20053;-59
2022/10/26 03:18:48;;;;;;;10.50;2.25;;;14.50;99.90;;;;;;5032260;28;20527;-63
2022/10/26 03:21:15;;;;;;;7.50;1.50;;;14.50;99.90;;;;;;5027155;28;20473;-59
2022/10/26 03:23:45;;;;;;;6.90;1.95;;;14.50;99.90;;;;;;5027842;28;20050;-58
2022/10/26 03:26:12;;;;;;;7.65;2.20;;;14.50;99.90;;;;;;5023391;28;20069;-58
2022/10/26 03:28:40;;;;;;;10.02;2.05;;;14.60;99.90;;;;;;5011876;28;20050;-58
2022/10/26 03:31:08;;;;;;;5.88;1.83;;;14.60;99.90;;;;;;5012660;28;20057;-58
2022/10/26 03:33:35;;;;;;;8.43;1.95;;;14.50;99.90;;;;;;5012255;28;20056;-58
2022/10/26 03:36:04;;;;;;;7.07;1.98;;;14.60;99.90;;;;;;5012443;28;20053;-59
2022/10/26 03:38:32;;;;;;;9.65;2.30;;;14.60;99.90;;;;;;5020383;28;20064;-59
2022/10/26 03:40:59;;;;;;;11.80;2.42;;;14.60;99.90;;;;;;5030062;28;20064;-58
2022/10/26 03:43:27;;;;;;;5.90;1.70;;;14.60;99.90;;;;;;5026510;28;20514;-58
2022/10/26 03:45:55;;;;;;;5.22;1.75;;;14.60;99.90;;;;;;5016420;28;20045;-58
2022/10/26 03:48:22;;;;;;;9.15;1.92;;;14.70;99.90;;;;;;5015280;28;20053;-58
2022/10/26 03:50:50;;;;;;;5.95;1.58;;;14.70;99.90;;;;;;5017379;28;20052;-59
2022/10/26 03:53:17;;;;;;;4.20;1.83;;;14.70;99.90;;;;;;5016217;28;20053;-59
2022/10/26 03:55:45;;;;;;;9.93;2.60;;;14.70;99.90;;;;;;5015493;28;20041;-58
2022/10/26 03:58:12;;;;;;;6.70;1.95;;;14.70;99.90;;;;;;5017199;28;20034;-59
2022/10/26 04:00:40;;;;;;;7.88;2.13;;;14.60;99.90;;;;;;5012141;28;20069;-58
2022/10/26 04:03:08;;;;;;;8.60;2.25;;;14.70;99.90;;;;;;5018544;28;20045;-58
2022/10/26 04:05:35;;;;;;;7.60;2.30;;;14.70;99.90;;;;;;5025488;28;20045;-58
2022/10/26 04:08:03;;;;;;;9.13;2.03;;;14.70;99.90;;;;;;5011229;28;20038;-58
2022/10/26 04:10:31;;;;;;;5.80;2.45;;;14.70;99.90;;;;;;5011737;28;20046;-58
2022/10/26 04:13:00;;;;;;;6.82;1.95;;;14.70;99.90;;;;;;5011429;28;20084;-60
2022/10/26 04:15:28;;;;;;;7.65;2.13;;;14.70;99.90;;;;;;5011376;28;20054;-59
2022/10/26 04:18:01;;;;;;;4.38;1.63;;;14.70;99.90;;;;;;5014394;28;20053;-58
2022/10/26 04:20:30;;;;;;;13.00;2.67;;;14.70;99.90;;;;;;5015276;28;20049;-58
2022/10/26 04:23:03;;;;;;;6.55;2.45;;;14.70;99.90;;;;;;5016572;28;20050;-58
2022/10/26 04:25:32;;;;;;;6.78;2.03;;;14.70;99.90;;;;;;5029027;28;20052;-61
2022/10/26 04:28:02;;;;;;;7.60;2.22;;;14.70;99.90;;;;;;5028317;28;20484;-64
2022/10/26 04:30:30;;;;;;;5.50;2.72;;;14.70;99.90;;;;;;5029575;28;20045;-59
2022/10/26 04:32:59;;;;;;;6.55;2.13;;;14.60;99.90;;;;;;5019139;28;20048;-59
2022/10/26 04:35:27;;;;;;;6.13;2.03;;;14.60;99.90;;;;;;5011071;28;20057;-58
2022/10/26 04:37:58;;;;;;;6.50;2.42;;;14.60;99.90;;;;;;5014188;28;20599;-64
2022/10/26 04:40:29;;;;;;;5.22;1.98;;;14.60;99.90;;;;;;5027027;28;20041;-59
2022/10/26 04:42:57;;;;;;;8.80;2.15;;;14.70;99.90;;;;;;5029699;28;20056;-58
2022/10/26 04:45:27;;;;;;;6.90;2.15;;;14.60;99.90;;;;;;5012507;28;20061;-60
2022/10/26 04:48:03;;;;;;;5.75;2.20;;;14.60;99.90;;;;;;5010683;28;20041;-60
2022/10/26 04:50:31;;;;;;;12.20;2.95;;;14.60;99.90;;;;;;5008062;28;20048;-59
2022/10/26 04:52:59;;;;;;;3.65;2.08;;;14.60;99.90;;;;;;5007089;28;20042;-58
2022/10/26 04:55:27;;;;;;;5.47;1.77;;;14.60;99.90;;;;;;5013904;28;20060;-58
2022/10/26 04:57:54;;;;;;;9.73;2.10;;;14.60;99.90;;;;;;5026614;28;20053;-58
2022/10/26 05:00:29;;;;;;;6.72;1.83;;;14.60;99.90;;;;;;5025299;28;20061;-60
2022/10/26 05:03:01;;;;;;;7.07;1.57;;;14.60;99.90;;;;;;5010181;28;20632;-61
2022/10/26 05:05:31;;;;;;;10.75;1.60;;;14.60;99.90;;;;;;5004490;28;20045;-58
2022/10/26 05:07:58;;;;;;;2.67;1.50;;;14.60;99.90;;;;;;5013615;28;20042;-60
2022/10/26 05:10:26;;;;;;;6.88;2.33;;;14.60;99.90;;;;;;5012896;28;20052;-59
2022/10/26 05:12:55;;;;;;;5.80;1.63;;;14.60;99.90;;;;;;5024005;28;20385;-58
2022/10/26 05:15:23;;;;;;;8.88;1.58;;;14.60;99.90;;;;;;5018772;28;20053;-63
2022/10/26 05:18:02;;;;;;;6.55;1.85;;;14.60;99.90;;;;;;5017964;28;20432;-60
2022/10/26 05:20:31;;;;;;;9.63;1.67;;;14.50;99.90;;;;;;5021773;28;20472;-59
2022/10/26 05:23:09;;;;;;;5.80;1.60;;;14.50;99.90;;;;;;5025407;28;20058;-59
2022/10/26 05:25:37;;;;;;;7.07;1.90;;;14.50;99.90;;;;;;5026717;28;20639;-60
2022/10/26 05:28:10;;;;;;;6.95;1.90;;;14.50;99.90;;;;;;5022444;28;20038;-59
2022/10/26 05:30:39;;;;;;;5.20;1.60;;;14.40;99.90;;;;;;5007658;28;20053;-59
2022/10/26 05:33:09;;;;;;;8.73;1.70;;;14.40;99.90;;;;;;5015195;28;20033;-59
2022/10/26 05:35:37;;;;;;;10.48;1.70;;;14.30;99.90;;;;;;5007831;28;20053;-70
2022/10/26 05:38:08;;;;;;;6.93;1.85;;;14.30;99.90;;;;;;5015811;28;20046;-70
2022/10/26 05:40:35;;;;;;;9.90;1.60;;;14.30;99.90;;;;;;5026393;28;20045;-65
2022/10/26 05:43:03;;;;;;;9.45;1.40;;;14.20;99.90;;;;;;5017585;28;20236;-65
2022/10/26 05:45:31;;;;;;;7.78;1.60;;;14.20;99.90;;;;;;5009639;28;20053;-58
2022/10/26 05:47:58;;;;;;;3.63;1.38;;;14.20;99.90;;;;;;5015707;28;20046;-58
2022/10/26 05:50:30;;;;;;;7.03;1.30;;;14.10;99.90;;;;;;5013061;28;20468;-60
2022/10/26 05:52:57;;;;;;;5.95;1.40;;;14.10;99.90;;;;;;5024926;28;20060;-59
2022/10/26 05:55:25;;;;;;;13.23;3.42;;;14.10;99.90;;;;;;5027735;28;20104;-59
2022/10/26 05:57:53;;;;;;;10.10;1.73;;;14.10;99.90;;;;;;5028456;28;20061;-65
2022/10/26 06:00:23;;;;;;;7.13;1.23;;;14.10;99.90;;;;;;5029084;28;20057;-70
2022/10/26 06:02:51;;;;;;;;;;;14.10;99.90;;;;;;5012261;28;20053;-70
2022/10/26 06:05:23;;;;;;;9.57;1.30;;;14.10;99.90;;;;;;5017541;28;19944;-59
2022/10/26 06:07:51;;;;;;;11.43;1.67;;;14.10;99.90;;;;;;5030295;28;20397;-58
2022/10/26 06:10:19;;;;;;;6.85;1.20;;;14.00;99.90;;;;;;5019426;28;20045;-58
2022/10/26 06:12:47;;;;;;;5.80;1.10;;;14.00;99.90;;;;;;5015559;28;20065;-62
2022/10/26 06:15:19;;;;;;;10.80;1.55;;;14.00;99.90;;;;;;5024045;28;20049;-59
2022/10/26 06:18:08;;;;;;;6.13;1.30;;;14.00;99.90;;;;;;5024405;28;20069;-58
2022/10/26 06:21:08;;;;;;;10.57;2.15;;;14.00;99.90;;;;;;5015805;28;20052;-63
2022/10/26 06:24:03;;;;;;;6.43;1.15;;;14.00;99.90;;;;;;5024490;28;20041;-61
2022/10/26 06:26:54;;;;;;;6.32;1.13;;;14.00;99.90;;;;;;5010030;28;20061;-59
2022/10/26 06:29:35;;;;;;;5.45;1.13;;;14.00;99.90;;;;;;5017731;28;20054;-60
2022/10/26 06:32:03;;;;;;;6.85;1.20;;;14.00;99.90;;;;;;5019942;28;20060;-60
2022/10/26 06:34:37;;;;;;;8.35;1.48;;;14.00;99.90;;;;;;5026404;28;20045;-64
2022/10/26 06:37:07;;;;;;;9.20;1.50;;;14.00;99.90;;;;;;5007919;28;20513;-62
2022/10/26 06:39:38;;;;;;;11.10;1.60;;;14.00;99.90;;;;;;5019955;28;20060;-62
2022/10/26 06:42:09;;;;;;;8.40;1.02;;;14.10;99.90;;;;;;5028725;28;20382;-61
2022/10/26 06:44:37;;;;;;;13.85;1.85;;;14.10;99.90;;;;;;5011742;28;20041;-64
2022/10/26 06:47:08;;;;;;;18.10;2.35;;;14.10;99.90;;;;;;5011952;28;20433;-58
2022/10/26 06:50:06;;;;;;;6.25;1.20;;;14.10;99.90;;;;;;5011710;28;20088;-59
2022/10/26 06:52:47;;;;;;;5.57;1.05;;;14.10;99.90;;;;;;5013911;28;20048;-67
2022/10/26 06:55:15;;;;;;;4.30;1.20;;;14.20;99.90;;;;;;5022725;28;20053;-58
2022/10/26 06:57:43;;;;;;;9.27;1.50;;;14.20;99.90;;;;;;5017538;28;20046;-58
2022/10/26 07:00:23;;;;;;;10.43;1.23;;;14.20;99.90;;;;;;5029984;28;20046;-58
2022/10/26 07:02:52;;;;;;;11.55;1.48;;;14.20;99.90;;;;;;5023596;28;20053;-60
2022/10/26 07:05:20;;;;;;;9.18;1.60;;;14.20;99.90;;;;;;5021151;28;20049;-62
2022/10/26 07:07:48;;;;;;;10.73;1.30;;;14.30;99.90;;;;;;5022751;28;20505;-59
2022/10/26 07:10:16;;;;;;;12.00;1.17;;;14.30;99.90;;;;;;5029360;28;20041;-58
2022/10/26 07:12:44;;;;;;;8.57;1.27;;;14.30;99.90;;;;;;5020977;28;20046;-59
2022/10/26 07:15:12;;;;;;;5.80;1.00;;;14.30;99.90;;;;;;5028212;28;20056;-61
2022/10/26 07:17:47;;;;;;;8.55;1.45;;;14.20;99.90;;;;;;5029795;28;20780;-63
2022/10/26 07:20:19;;;;;;;9.15;1.38;;;14.20;99.90;;;;;;5024451;28;20049;-59
2022/10/26 07:22:54;;;;;;;9.70;1.70;;;14.30;99.90;;;;;;5012266;28;20053;-58
2022/10/26 07:25:24;;;;;;;9.95;1.52;;;14.30;99.90;;;;;;5026746;28;20045;-59
2022/10/26 07:27:55;;;;;;;7.68;1.17;;;14.30;99.90;;;;;;5026085;28;20049;-59
2022/10/26 07:30:23;;;;;;;8.40;2.30;;;14.30;99.90;;;;;;5008487;28;20508;-57
2022/10/26 07:33:08;;;;;;;12.45;1.27;;;14.30;99.90;;;;;;5009144;28;20481;-59
2022/10/26 07:35:36;;;;;;;4.85;1.10;;;14.30;99.90;;;;;;5008706;28;20057;-58
2022/10/26 07:38:04;;;;;;;8.13;1.55;;;14.40;99.90;;;;;;5015680;28;20485;-58
2022/10/26 07:40:32;;;;;;;9.32;1.40;;;14.40;99.90;;;;;;5014380;28;20057;-58
2022/10/26 07:43:00;;;;;;;9.00;1.92;;;14.50;99.90;;;;;;5013276;28;20041;-59
2022/10/26 07:45:28;;;;;;;14.20;1.83;;;14.40;99.90;;;;;;5006615;28;20540;-58
2022/10/26 07:47:56;;;;;;;13.48;2.17;;;14.50;99.90;;;;;;5005328;28;20046;-58
2022/10/26 07:50:24;;;;;;;14.43;1.85;;;14.50;99.90;;;;;;5012719;28;20053;-58
2022/10/26 07:52:53;;;;;;;8.48;1.13;;;14.60;99.90;;;;;;5013289;28;20392;-59
2022/10/26 07:55:21;;;;;;;16.20;2.65;;;14.60;99.90;;;;;;5010280;28;21038;-58
2022/10/26 07:57:48;;;;;;;13.55;1.77;;;14.60;99.90;;;;;;5008121;28;20512;-58
2022/10/26 08:00:21;;;;;;;13.10;1.33;;;14.60;99.90;;;;;;5011415;28;20480;-59
2022/10/26 08:02:49;;;;;;;13.50;2.17;;;14.70;99.90;;;;;;5008344;28;20716;-59
2022/10/26 08:05:17;;;;;;;9.45;1.50;;;;;;;;;;5011102;28;20037;-61
2022/10/26 08:07:45;;;;;;;10.05;1.52;;;14.70;99.90;;;;;;5007815;28;20046;-59
2022/10/26 08:10:14;;;;;;;10.00;1.60;;;14.70;99.90;;;;;;5017230;28;20053;-59
2022/10/26 08:12:42;;;;;;;7.35;1.45;;;14.70;99.90;;;;;;5009746;28;21506;-58
2022/10/26 08:15:11;;;;;;;12.20;1.58;;;14.70;99.90;;;;;;5008275;28;20042;-58
2022/10/26 08:17:38;;;;;;;13.02;1.88;;;14.70;99.90;;;;;;5013409;28;20060;-57
2022/10/26 08:20:06;;;;;;;8.57;1.42;;;14.70;99.90;;;;;;5012271;28;20038;-58
2022/10/26 08:22:37;;;;;;;8.30;1.10;;;14.70;99.90;;;;;;5016067;28;20071;-58
2022/10/26 08:25:05;;;;;;;13.75;1.88;;;14.70;99.90;;;;;;5027960;28;20042;-58
2022/10/26 08:27:35;;;;;;;16.35;4.22;;;14.70;99.90;;;;;;5027778;28;20328;-60
2022/10/26 08:30:03;;;;;;;11.68;1.80;;;14.70;99.90;;;;;;5011703;28;20049;-58
2022/10/26 08:32:31;;;;;;;11.43;1.60;;;14.80;99.90;;;;;;5014243;28;20049;-59
2022/10/26 08:34:58;;;;;;;13.02;1.38;;;14.80;99.90;;;;;;5016373;28;20056;-58
2022/10/26 08:37:26;;;;;;;12.85;1.27;;;14.80;99.90;;;;;;5014229;28;20057;-57
2022/10/26 08:39:54;;;;;;;12.50;1.90;;;14.80;99.90;;;;;;5020749;28;20046;-58
2022/10/26 08:42:37;;;;;;;4.72;1.17;;;14.80;99.90;;;;;;5011646;28;20853;-57
2022/10/26 08:45:14;;;;;;;9.63;2.03;;;14.80;99.90;;;;;;5014373;28;20056;-57
2022/10/26 08:47:49;;;;;;;9.43;1.20;;;14.90;99.90;;;;;;5013330;28;20038;-62
2022/10/26 08:50:32;;;;;;;11.57;1.23;;;14.90;99.90;;;;;;5004935;28;20220;-61
2022/10/26 08:53:15;;;;;;;8.98;1.80;;;14.90;99.90;;;;;;5014548;28;20041;-58
2022/10/26 08:55:47;;;;;;;13.13;1.40;;;14.90;99.90;;;;;;5007996;28;20046;-58
2022/10/26 08:58:18;;;;;;;8.90;1.35;;;14.90;99.90;;;;;;5017300;28;20424;-57
2022/10/26 09:00:48;;;;;;;11.23;1.42;;;15.00;99.90;;;;;;5026483;28;20378;-60
2022/10/26 09:03:17;;;;;;;12.27;1.67;;;15.00;99.90;;;;;;5018127;28;20647;-58
2022/10/26 09:05:51;;;;;;;10.05;1.40;;;15.10;99.90;;;;;;5025329;28;20049;-58
2022/10/26 09:08:58;;;;;;;8.18;1.02;;;15.20;99.90;;;;;;5024779;28;20037;-58
2022/10/26 09:11:39;;;;;;;13.23;1.85;;;15.30;99.90;;;;;;5027566;28;20053;-58
2022/10/26 09:14:48;;;;;;;11.63;1.48;;;15.50;99.90;;;;;;5025881;28;20050;-58
2022/10/26 09:17:31;;;;;;;6.55;1.30;;;15.50;99.90;;;;;;5020859;28;20613;-59
2022/10/26 09:20:27;;;;;;;8.80;1.35;;;15.50;99.90;;;;;;5028129;28;20049;-57
2022/10/26 09:23:23;;;;;;;5.90;0.90;;;15.50;99.90;;;;;;5021068;28;20056;-57
2022/10/26 09:25:58;;;;;;;6.45;1.05;;;15.60;99.90;;;;;;5010069;28;20042;-57
2022/10/26 09:28:33;;;;;;;12.32;1.73;;;15.60;99.90;;;;;;5008437;28;20104;-57
2022/10/26 09:31:02;;;;;;;10.30;1.08;;;15.60;99.90;;;;;;5020976;28;20066;-57
2022/10/26 09:33:35;;;;;;;7.97;1.40;;;15.60;99.90;;;;;;5023889;28;20084;-58
2022/10/26 09:36:11;;;;;;;13.02;1.70;;;15.70;99.90;;;;;;5014539;28;20299;-59
2022/10/26 09:38:54;;;;;;;12.13;1.25;;;15.60;99.90;;;;;;5014452;28;20061;-58
2022/10/26 09:41:41;;;;;;;11.73;1.17;;;15.70;99.90;;;;;;5010770;28;20050;-59
2022/10/26 09:44:33;;;;;;;6.65;1.20;;;15.70;99.90;;;;;;5027916;28;20065;-59
2022/10/26 09:47:01;;;;;;;9.80;0.85;;;15.70;99.90;;;;;;5011398;28;20497;-59
2022/10/26 09:49:40;;;;;;;5.82;1.55;;;15.70;99.90;;;;;;5022335;28;20042;-60
2022/10/26 09:52:07;;;;;;;7.85;1.00;;;15.70;99.90;;;;;;5010807;28;20477;-58
2022/10/26 09:54:35;;;;;;;15.98;1.45;;;15.80;99.90;;;;;;5025791;28;20136;-58
2022/10/26 09:57:03;;;;;;;11.18;1.15;;;16.00;99.90;;;;;;5029388;28;20477;-58
2022/10/26 09:59:35;;;;;;;9.15;1.48;;;16.00;99.90;;;;;;5029343;28;20054;-59
2022/10/26 10:02:42;;;;;;;7.90;1.27;;;16.10;99.90;;;;;;5026440;28;20042;-59
2022/10/26 10:05:26;;;;;;;8.02;1.13;;;16.20;99.90;;;;;;5027734;28;20069;-58
2022/10/26 10:08:26;;;;;;;5.07;0.85;;;16.30;99.90;;;;;;5024939;28;20401;-57
2022/10/26 10:11:09;;;;;;;5.30;1.42;;;16.40;99.90;;;;;;5030611;28;20049;-58
2022/10/26 10:13:40;;;;;;;5.55;0.95;;;16.50;99.90;;;;;;5021324;28;20049;-59
2022/10/26 10:16:21;;;;;;;9.13;1.80;;;16.50;99.90;;;;;;5010265;28;20053;-58
2022/10/26 10:18:58;;;;;;;8.02;1.17;;;16.60;99.90;;;;;;5024930;28;20045;-58
2022/10/26 10:21:46;;;;;;;6.80;1.20;;;16.60;99.90;;;;;;5010504;28;20057;-58
2022/10/26 10:24:31;;;;;;;3.33;1.20;;;16.60;99.90;;;;;;5018600;28;20053;-58
2022/10/26 10:27:02;;;;;;;8.60;1.20;;;16.60;99.90;;;;;;5010042;28;20049;-58
2022/10/26 10:29:39;;;;;;;4.47;0.82;;;16.60;99.90;;;;;;5029750;28;20057;-58
2022/10/26 10:32:22;;;;;;;10.43;1.75;;;16.60;99.90;;;;;;5012627;28;20060;-58
2022/10/26 10:34:51;;;;;;;5.95;1.00;;;16.60;99.90;;;;;;5023929;28;20050;-58
2022/10/26 10:37:31;;;;;;;7.85;1.25;;;16.60;99.90;;;;;;5013074;28;20068;-57
2022/10/26 10:40:13;;;;;;;4.25;1.00;;;16.60;99.90;;;;;;5011374;28;20050;-57
2022/10/26 10:42:46;;;;;;;7.63;1.45;;;16.70;99.90;;;;;;5026176;28;20056;-58
2022/10/26 10:45:27;;;;;;;7.55;1.10;;;16.70;99.90;;;;;;5029734;28;20064;-58
2022/10/26 10:48:19;;;;;;;5.68;1.00;;;16.80;99.90;;;;;;5028235;28;20052;-58
2022/10/26 10:51:11;;;;;;;10.13;1.80;;;16.80;99.90;;;;;;5023694;28;20515;-57
2022/10/26 10:53:55;;;;;;;9.02;1.67;;;16.80;99.90;;;;;;5024067;28;20500;-57
2022/10/26 10:56:26;;;;;;;9.00;1.30;;;16.90;99.90;;;;;;5017015;28;20050;-58
2022/10/26 10:59:21;;;;;;;13.10;1.48;;;16.90;99.90;;;;;;5017125;28;20049;-58
2022/10/26 11:02:00;;;;;;;7.75;1.02;;;17.00;99.90;;;;;;5022412;28;20476;-57
2022/10/26 11:04:57;;;;;;;7.68;1.42;;;17.00;99.90;;;;;;5025941;28;20049;-59
2022/10/26 11:07:28;;;;;;;10.73;1.17;;;17.10;99.90;;;;;;5027612;28;20053;-59
2022/10/26 11:10:01;;;;;;;9.55;1.58;;;17.20;99.90;;;;;;5027034;28;20428;-58
2022/10/26 11:12:33;;;;;;;7.15;1.17;;;17.40;99.90;;;;;;5013051;28;20056;-59
2022/10/26 11:15:11;;;;;;;5.28;1.05;;;17.90;99.90;;;;;;5029137;28;20669;-58
2022/10/26 11:18:03;;;;;;;11.02;1.42;;;17.90;99.90;;;;;;5027788;28;20151;-59
2022/10/26 11:20:41;;;;;;;8.50;1.25;;;18.10;99.90;;;;;;5009683;28;20049;-58
2022/10/26 11:23:25;;;;;;;8.82;1.63;;;18.40;99.90;;;;;;5017567;28;20046;-58
2022/10/26 11:26:16;;;;;;;7.72;0.90;;;18.40;99.90;;;;;;5023294;28;20053;-59
2022/10/26 11:28:47;;;;;;;8.00;1.30;;;18.50;99.90;;;;;;5020646;28;20057;-58
2022/10/26 11:31:33;;;;;;;10.27;1.20;;;18.40;99.90;;;;;;5015420;28;20054;-58
2022/10/26 11:34:10;;;;;;;8.98;1.42;;;18.40;99.90;;;;;;5020048;28;20524;-58
2022/10/26 11:36:42;;;;;;;8.25;1.42;;;18.30;99.90;;;;;;5009543;28;20050;-58
2022/10/26 11:39:10;;;;;;;11.23;1.45;;;18.30;99.90;;;;;;5025343;28;20492;-58
2022/10/26 11:42:12;;;;;;;5.13;1.83;;;18.40;99.90;;;;;;5022373;28;20045;-58
2022/10/26 11:44:52;;;;;;;11.52;1.30;;;18.40;99.90;;;;;;5020435;28;20057;-58
2022/10/26 11:47:34;;;;;;;9.45;1.45;;;18.60;99.90;;;;;;5019891;28;20390;-58
2022/10/26 11:50:17;;;;;;;8.23;1.33;;;18.70;99.90;;;;;;5025585;28;20049;-58
2022/10/26 11:52:52;;;;;;;7.65;1.60;;;18.70;99.90;;;;;;5027899;28;20056;-58
2022/10/26 11:55:21;;;;;;;5.95;1.20;;;18.70;99.90;;;;;;5028678;28;20052;-58
2022/10/26 11:57:52;;;;;;;8.25;1.52;;;19.30;99.90;;;;;;5024254;28;20046;-58
2022/10/26 12:00:21;;;;;;;9.75;1.25;;;19.30;99.90;;;;;;5010859;28;20419;-58
2022/10/26 12:02:56;;;;;;;9.70;1.58;;;19.40;99.90;;;;;;5016034;28;20596;-60
2022/10/26 12:05:27;;;;;;;7.57;1.30;;;19.60;99.90;;;;;;5028829;28;20057;-61
2022/10/26 12:08:10;;;;;;;11.15;1.48;;;19.50;99.90;;;;;;5025972;28;20054;-60
2022/10/26 12:10:42;;;;;;;18.45;1.83;;;18.80;99.90;;;;;;5028396;28;20307;-65
2022/10/26 12:13:41;;;;;;;7.22;1.20;;;18.80;99.90;;;;;;5021759;28;20049;-64
2022/10/26 12:17:03;;;;;;;9.88;1.50;;;18.30;99.90;;;;;;5005794;28;20500;-62
2022/10/26 12:19:41;;;;;;;12.55;2.13;;;18.20;99.90;;;;;;5003728;28;20065;-60
2022/10/26 12:22:12;;;;;;;12.77;1.63;;;18.00;99.90;;;;;;4990164;28;20470;-61
2022/10/26 12:24:45;;;;;;;9.68;1.58;;;17.90;99.90;;;;;;5007087;28;20070;-61
2022/10/26 12:27:39;;;;;;;9.98;1.48;;;17.90;99.90;;;;;;5007236;28;20335;-59
2022/10/26 12:30:30;;;;;;;5.93;1.02;;;17.90;99.90;;;;;;5026235;28;20065;-58
2022/10/26 12:33:28;;;;;;;13.13;1.55;;;17.90;99.90;;;;;;5023533;28;20511;-59
2022/10/26 12:35:55;;;;;;;11.18;1.30;;;17.90;99.90;;;;;;5007683;28;20405;-60
2022/10/26 12:38:23;;;;;;;9.00;1.38;;;17.80;99.90;;;;;;5010692;28;20053;-60
2022/10/26 12:41:02;;;;;;;10.85;2.00;;;17.80;99.90;;;;;;5020146;28;20049;-59
2022/10/26 12:43:30;;;;;;;9.68;1.40;;;17.70;99.90;;;;;;5017690;28;20053;-59
2022/10/26 12:46:13;;;;;;;8.30;1.67;;;17.60;99.90;;;;;;5022599;28;20057;-60
2022/10/26 12:48:45;;;;;;;17.02;1.65;;;17.60;99.90;;;;;;5020547;28;20049;-71
2022/10/26 12:51:23;;;;;;;12.20;2.47;;;17.50;99.90;;;;;;5028217;28;20057;-68
2022/10/26 12:54:00;;;;;;;12.95;1.92;;;17.50;99.90;;;;;;5027429;28;20054;-59
2022/10/26 12:57:05;;;;;;;11.23;1.40;;;17.50;99.90;;;;;;5031955;28;20060;-59
2022/10/26 12:59:53;;;;;;;10.27;2.17;;;17.40;99.90;;;;;;5019737;28;20078;-59
2022/10/26 13:02:43;;;;;;;16.92;2.35;;;17.40;99.90;;;;;;5026041;28;20064;-58
2022/10/26 13:05:42;;;;;;;11.48;1.85;;;17.40;99.90;;;;;;5012010;28;20411;-58
2022/10/26 13:08:12;;;;;;;12.70;1.85;;;17.40;99.90;;;;;;5020316;28;20423;-58
2022/10/26 13:11:23;;;;;;;17.15;2.72;;;17.30;99.90;;;;;;5031451;28;20041;-59
2022/10/26 13:13:57;;;;;;;9.88;1.38;;;17.20;99.90;;;;;;5023824;28;20046;-57
2022/10/26 13:16:27;;;;;;;12.27;1.92;;;17.20;99.90;;;;;;5011353;28;20072;-59
2022/10/26 13:18:56;;;;;;;10.88;2.25;;;17.20;99.90;;;;;;5019407;28;20061;-57
2022/10/26 13:21:25;;;;;;;9.70;1.57;;;17.20;99.90;;;;;;5017218;28;20045;-57